Time;durP1;ratioP1;P1;durP2;ratioP2;P2;SDS_P1;SDS_P2;PMS_P1;PMS_P2;Temp;Humidity;BMP_temperature;BMP_pressure;BME280_temperature;BME280_humidity;BME280_pressure;Samples;Min_cycle;Max_cycle;Signal;HPM_P1;HPM_P2
2021/08/05 00:00:44;;;;;;;;;;;;;;;;;;2102043;28;1859;-85
2021/08/05 00:01:46;;;;;;;;;;;;;;;;;;2108352;28;1436;-85
2021/08/05 00:02:46;;;;;;;;;;;;;;;;;;2113291;28;1992;-85
2021/08/05 00:03:48;;;;;;;;;;;;;;;;;;2108736;28;1236;-85
2021/08/05 00:04:49;;;;;;;;;;;;;;;;;;2108646;28;1190;-85
2021/08/05 00:05:51;;;;;;;;;;;;;;;;;;2107953;28;1998;-85
2021/08/05 00:06:51;;;;;;;;;;;;;;;;;;2099948;28;1301;-86
2021/08/05 00:07:53;;;;;;;;;;;;;;;;;;2100719;28;1866;-85
2021/08/05 00:08:54;;;;;;;;;;;;;;;;;;2099638;28;1391;-85
2021/08/05 00:09:56;;;;;;;;;;;;;;;;;;2100089;28;1407;-84
2021/08/05 00:10:58;;;;;;;;;;;;;;;;;;2103999;28;1840;-85
2021/08/05 00:12:00;;;;;;;;;;;;;;;;;;2108824;28;1316;-85
2021/08/05 00:13:01;;;;;;;;;;;;;;;;;;2115099;28;2034;-85
2021/08/05 00:14:03;;;;;;;;;;;;;;;;;;2108706;28;1194;-85
2021/08/05 00:15:07;;;;;;;;;;;;;;;;;;2108472;28;1310;-86
2021/08/05 00:16:09;;;;;;;;;;;;;;;;;;2108625;28;1332;-86
2021/08/05 00:17:09;;;;;;;;;;;;;;;;;;2108238;28;1873;-87
2021/08/05 00:18:12;;;;;;;;;;;;;;;;;;2108306;28;1605;-85
2021/08/05 00:19:13;;;;;;;;;;;;;;;;;;2108160;28;1198;-85
2021/08/05 00:20:14;;;;;;;;;;;;;;;;;;2108406;28;1205;-86
2021/08/05 00:21:16;;;;;;;;;;;;;;;;;;2107106;28;1805;-85
2021/08/05 00:22:18;;;;;;;;;;;;;;;;;;2091653;28;2006;-86
2021/08/05 00:23:19;;;;;;;;;;;;;;;;;;2099692;28;1395;-86
2021/08/05 00:24:21;;;;;;;;;;;;;;;;;;2100044;28;1329;-86
2021/08/05 00:25:21;;;;;;;;;;;;;;;;;;2100309;28;1292;-86
2021/08/05 00:26:25;;;;;;;;;;;;;;;;;;2091955;28;1967;-86
2021/08/05 00:27:26;;;;;;;;;;;;;;;;;;2101947;28;2067;-85
2021/08/05 00:28:27;;;;;;;;;;;;;;;;;;2108452;28;1392;-86
2021/08/05 00:29:28;;;;;;;;;;;;;;;;;;2091929;28;1344;-88
2021/08/05 00:30:40;;;;;;;;;;;;;;;;;;2099342;28;1872;-86
2021/08/05 00:31:43;;;;;;;;;;;;;;;;;;2099868;28;1376;-86
2021/08/05 00:32:45;;;;;;;;;;;;;;;;;;2092341;28;1946;-85
2021/08/05 00:33:46;;;;;;;;;;;;;;;;;;2100426;28;1473;-85
2021/08/05 00:34:47;;;;;;;;;;;;;;;;;;2099872;28;1255;-85
2021/08/05 00:35:48;;;;;;;;;;;;;;;;;;2094578;28;1912;-86
2021/08/05 00:36:50;;;;;;;;;;;;;;;;;;2099427;28;1195;-85
2021/08/05 00:37:51;;;;;;;;;;;;;;;;;;2104087;28;2025;-84
2021/08/05 00:38:52;;;;;;;;;;;;;;;;;;2108278;28;1210;-85
2021/08/05 00:39:55;;;;;;;;;;;;;;;;;;2091811;28;1322;-85
2021/08/05 00:40:57;;;;;;;;;;;;;;;;;;2095779;28;1861;-85
2021/08/05 00:41:59;;;;;;;;;;;;;;;;;;2100006;28;1271;-85
2021/08/05 00:43:01;;;;;;;;;;;;;;;;;;2108251;28;1988;-85
2021/08/05 00:44:02;;;;;;;;;;;;;;;;;;2108229;28;1484;-85
2021/08/05 00:45:05;;;;;;;;;;;;;;;;;;2107969;28;1361;-86
2021/08/05 00:46:05;;;;;;;;;;;;;;;;;;2107126;28;1910;-86
2021/08/05 00:47:07;;;;;;;;;;;;;;;;;;2107566;28;1316;-85
2021/08/05 00:48:08;;;;;;;;;;;;;;;;;;2107883;28;2087;-85
2021/08/05 00:49:10;;;;;;;;;;;;;;;;;;2099903;28;1547;-84
2021/08/05 00:50:11;;;;;;;;;;;;;;;;;;2099716;28;1230;-85
2021/08/05 00:51:12;;;;;;;;;;;;;;;;;;2099034;28;1848;-84
2021/08/05 00:52:13;;;;;;;;;;;;;;;;;;2107189;28;2015;-86
2021/08/05 00:53:14;;;;;;;;;;;;;;;;;;2107878;28;1368;-85
2021/08/05 00:54:17;;;;;;;;;;;;;;;;;;2099524;28;1310;-85
2021/08/05 00:55:18;;;;;;;;;;;;;;;;;;2100013;28;1243;-84
2021/08/05 00:56:20;;;;;;;;;;;;;;;;;;2098410;28;1982;-85
2021/08/05 00:57:22;;;;;;;;;;;;;;;;;;2099293;28;1855;-84
2021/08/05 00:58:24;;;;;;;;;;;;;;;;;;2099324;28;1367;-84
2021/08/05 00:59:25;;;;;;;;;;;;;;;;;;2099817;28;1792;-84
2021/08/05 01:00:27;;;;;;;;;;;;;;;;;;2107684;28;1891;-85
2021/08/05 01:01:31;;;;;;;;;;;;;;;;;;2107958;28;1668;-84
2021/08/05 01:02:37;;;;;;;;;;;;;;;;;;2096946;28;2032;-84
2021/08/05 01:03:41;;;;;;;;;;;;;;;;;;2092146;28;1259;-84
2021/08/05 01:04:44;;;;;;;;;;;;;;;;;;2099724;28;1195;-84
2021/08/05 01:05:47;;;;;;;;;;;;;;;;;;2107389;28;1981;-84
2021/08/05 01:06:57;;;;;;;;;;;;;;;;;;2107934;28;1531;-83
2021/08/05 01:08:01;;;;;;;;;;;;;;;;;;2106345;28;2079;-82
2021/08/05 01:09:04;;;;;;;;;;;;;;;;;;2100038;28;1266;-84
2021/08/05 01:10:07;;;;;;;;;;;;;;;;;;2099851;28;1262;-83
2021/08/05 01:11:12;;;;;;;;;;;;;;;;;;2099638;28;1228;-83
2021/08/05 01:12:17;;;;;;;;;;;;;;;;;;2107502;28;2027;-83
2021/08/05 01:13:23;;;;;;;;;;;;;;;;;;2107964;28;1327;-84
2021/08/05 01:14:26;;;;;;;;;;;;;;;;;;2108106;28;787;-83
2021/08/05 01:15:29;;;;;;;;;;;;;;;;;;2107318;28;2007;-84
2021/08/05 01:16:31;;;;;;;;;;;;;;;;;;2099130;28;1623;-84
2021/08/05 01:17:36;;;;;;;;;;;;;;;;;;2106878;28;2041;-84
2021/08/05 01:18:37;;;;;;;;;;;;;;;;;;2107438;28;1214;-84
2021/08/05 01:19:42;;;;;;;;;;;;;;;;;;2090202;28;1318;-84
2021/08/05 01:20:44;;;;;;;;;;;;;;;;;;2093693;28;1948;-83
2021/08/05 01:21:49;;;;;;;;;;;;;;;;;;2099481;28;1667;-85
2021/08/05 01:23:00;;;;;;;;;;;;;;;;;;2099959;28;1862;-83
2021/08/05 01:24:05;;;;;;;;;;;;;;;;;;2101165;28;1712;-83
2021/08/05 01:25:07;;;;;;;;;;;;;;;;;;2107925;28;809;-83
2021/08/05 01:26:11;;;;;;;;;;;;;;;;;;2107171;28;1914;-83
2021/08/05 01:27:14;;;;;;;;;;;;;;;;;;2107984;28;1237;-83
2021/08/05 01:28:17;;;;;;;;;;;;;;;;;;2099461;28;1305;-83
2021/08/05 01:29:17;;;;;;;;;;;;;;;;;;2099915;28;1661;-84
2021/08/05 01:30:19;;;;;;;;;;;;;;;;;;2107707;28;1295;-84
2021/08/05 01:31:21;;;;;;;;;;;;;;;;;;2108006;28;2017;-84
2021/08/05 01:32:24;;;;;;;;;;;;;;;;;;2115402;28;2084;-85
2021/08/05 01:33:29;;;;;;;;;;;;;;;;;;2107461;28;1414;-87
2021/08/05 01:34:32;;;;;;;;;;;;;;;;;;2099938;28;1406;-86
2021/08/05 01:35:34;;;;;;;;;;;;;;;;;;2099661;28;1261;-85
2021/08/05 01:36:36;;;;;;;;;;;;;;;;;;2098993;28;1788;-84
2021/08/05 01:37:38;;;;;;;;;;;;;;;;;;2108053;28;1374;-85
2021/08/05 01:38:41;;;;;;;;;;;;;;;;;;2099377;28;1309;-85
2021/08/05 01:39:43;;;;;;;;;;;;;;;;;;2108133;28;864;-85
2021/08/05 01:40:46;;;;;;;;;;;;;;;;;;2107161;28;1299;-85
2021/08/05 01:41:48;;;;;;;;;;;;;;;;;;2099441;28;1273;-84
2021/08/05 01:42:51;;;;;;;;;;;;;;;;;;2108435;28;1356;-84
2021/08/05 01:43:52;;;;;;;;;;;;;;;;;;2107832;28;1379;-84
2021/08/05 01:44:54;;;;;;;;;;;;;;;;;;2107741;28;1318;-84
2021/08/05 01:45:55;;;;;;;;;;;;;;;;;;2110772;28;1902;-84
2021/08/05 01:46:57;;;;;;;;;;;;;;;;;;2107236;28;1245;-84
2021/08/05 01:47:58;;;;;;;;;;;;;;;;;;2107228;28;2034;-83
2021/08/05 01:49:01;;;;;;;;;;;;;;;;;;2107466;28;1743;-83
2021/08/05 01:50:02;;;;;;;;;;;;;;;;;;2099602;28;1392;-83
2021/08/05 01:51:04;;;;;;;;;;;;;;;;;;2103876;28;1880;-83
2021/08/05 01:52:06;;;;;;;;;;;;;;;;;;2099302;28;1637;-83
2021/08/05 01:53:08;;;;;;;;;;;;;;;;;;2107898;28;1724;-83
2021/08/05 01:54:09;;;;;;;;;;;;;;;;;;2107313;28;1408;-83
2021/08/05 01:55:12;;;;;;;;;;;;;;;;;;2107433;28;1310;-82
2021/08/05 01:56:13;;;;;;;;;;;;;;;;;;2116180;28;1374;-83
2021/08/05 01:57:16;;;;;;;;;;;;;;;;;;2107304;28;1998;-83
2021/08/05 01:58:18;;;;;;;;;;;;;;;;;;2115984;28;1319;-83
2021/08/05 01:59:19;;;;;;;;;;;;;;;;;;2107608;28;1384;-84
2021/08/05 02:00:20;;;;;;;;;;;;;;;;;;2099029;28;1207;-84
2021/08/05 02:01:22;;;;;;;;;;;;;;;;;;2105908;28;2038;-84
2021/08/05 02:02:23;;;;;;;;;;;;;;;;;;2107651;28;1420;-85
2021/08/05 02:03:25;;;;;;;;;;;;;;;;;;2099222;28;1589;-84
2021/08/05 02:04:32;;;;;;;;;;;;;;;;;;2107683;28;775;-84
2021/08/05 02:05:40;;;;;;;;;;;;;;;;;;2107777;28;1644;-84
2021/08/05 02:06:45;;;;;;;;;;;;;;;;;;2099968;28;1913;-84
2021/08/05 02:07:49;;;;;;;;;;;;;;;;;;2100137;28;1355;-83
2021/08/05 02:08:52;;;;;;;;;;;;;;;;;;2099111;28;1436;-82
2021/08/05 02:09:57;;;;;;;;;;;;;;;;;;2107170;28;1453;-82
2021/08/05 02:10:59;;;;;;;;;;;;;;;;;;2102610;28;1867;-82
2021/08/05 02:12:01;;;;;;;;;;;;;;;;;;2099324;28;1372;-82
2021/08/05 02:13:04;;;;;;;;;;;;;;;;;;2099593;28;2106;-83
2021/08/05 02:14:08;;;;;;;;;;;;;;;;;;2099437;28;1685;-83
2021/08/05 02:15:09;;;;;;;;;;;;;;;;;;2099327;28;1707;-82
2021/08/05 02:16:13;;;;;;;;;;;;;;;;;;2098726;28;1922;-83
2021/08/05 02:17:15;;;;;;;;;;;;;;;;;;2108124;28;1379;-83
2021/08/05 02:18:19;;;;;;;;;;;;;;;;;;2107560;28;1328;-82
2021/08/05 02:19:20;;;;;;;;;;;;;;;;;;2099658;28;1199;-82
2021/08/05 02:20:22;;;;;;;;;;;;;;;;;;2099019;28;1520;-83
2021/08/05 02:21:24;;;;;;;;;;;;;;;;;;2099111;28;1886;-83
2021/08/05 02:22:27;;;;;;;;;;;;;;;;;;2099064;28;1891;-83
2021/08/05 02:23:28;;;;;;;;;;;;;;;;;;2099237;28;1732;-82
2021/08/05 02:24:31;;;;;;;;;;;;;;;;;;2099145;28;1336;-83
2021/08/05 02:25:32;;;;;;;;;;;;;;;;;;2107350;28;1724;-83
2021/08/05 02:26:34;;;;;;;;;;;;;;;;;;2115309;28;1922;-83
2021/08/05 02:27:35;;;;;;;;;;;;;;;;;;2115638;28;2085;-83
2021/08/05 02:28:37;;;;;;;;;;;;;;;;;;2115638;28;1589;-83
2021/08/05 02:29:40;;;;;;;;;;;;;;;;;;2107070;28;1190;-84
2021/08/05 02:30:42;;;;;;;;;;;;;;;;;;2107348;28;1871;-92
2021/08/05 02:31:43;;;;;;;;;;;;;;;;;;2107554;28;1257;-84
2021/08/05 02:32:45;;;;;;;;;;;;;;;;;;2115730;28;1254;-84
2021/08/05 02:33:46;;;;;;;;;;;;;;;;;;2099364;28;1585;-84
2021/08/05 02:34:49;;;;;;;;;;;;;;;;;;2107358;28;831;-83
2021/08/05 02:35:51;;;;;;;;;;;;;;;;;;2115373;28;1905;-83
2021/08/05 02:36:53;;;;;;;;;;;;;;;;;;2115166;28;1391;-83
2021/08/05 02:37:55;;;;;;;;;;;;;;;;;;2105205;28;2007;-83
2021/08/05 02:38:56;;;;;;;;;;;;;;;;;;2098841;28;1575;-86
2021/08/05 02:39:57;;;;;;;;;;;;;;;;;;2107502;28;1591;-83
2021/08/05 02:40:59;;;;;;;;;;;;;;;;;;2099190;28;1919;-83
2021/08/05 02:42:02;;;;;;;;;;;;;;;;;;2107129;28;1270;-84
2021/08/05 02:43:04;;;;;;;;;;;;;;;;;;2114335;28;2121;-83
2021/08/05 02:44:06;;;;;;;;;;;;;;;;;;2107031;28;1498;-83
2021/08/05 02:45:09;;;;;;;;;;;;;;;;;;2107572;28;1400;-82
2021/08/05 02:46:11;;;;;;;;;;;;;;;;;;2106635;28;1856;-84
2021/08/05 02:47:13;;;;;;;;;;;;;;;;;;2107159;28;2070;-82
2021/08/05 02:48:14;;;;;;;;;;;;;;;;;;2107328;28;1774;-82
2021/08/05 02:49:16;;;;;;;;;;;;;;;;;;2107658;28;1294;-82
2021/08/05 02:50:18;;;;;;;;;;;;;;;;;;2106920;28;1524;-82
2021/08/05 02:51:20;;;;;;;;;;;;;;;;;;2107074;28;1915;-81
2021/08/05 02:52:21;;;;;;;;;;;;;;;;;;2115947;28;2011;-81
2021/08/05 02:53:23;;;;;;;;;;;;;;;;;;2115924;28;835;-82
2021/08/05 02:54:24;;;;;;;;;;;;;;;;;;2115664;28;1416;-82
2021/08/05 02:55:26;;;;;;;;;;;;;;;;;;2107581;28;1356;-82
2021/08/05 02:56:27;;;;;;;;;;;;;;;;;;2099089;28;1551;-83
2021/08/05 02:57:29;;;;;;;;;;;;;;;;;;2106435;28;2031;-83
2021/08/05 02:58:29;;;;;;;;;;;;;;;;;;2115602;28;1683;-83
2021/08/05 02:59:31;;;;;;;;;;;;;;;;;;2115780;28;1520;-83
2021/08/05 03:00:33;;;;;;;;;;;;;;;;;;2106199;28;1861;-84
2021/08/05 03:01:35;;;;;;;;;;;;;;;;;;2107237;28;842;-83
2021/08/05 03:02:36;;;;;;;;;;;;;;;;;;2109996;28;2003;-83
2021/08/05 03:03:38;;;;;;;;;;;;;;;;;;2107829;28;1715;-82
2021/08/05 03:04:39;;;;;;;;;;;;;;;;;;2099896;28;1912;-83
2021/08/05 03:05:41;;;;;;;;;;;;;;;;;;2102185;28;1864;-83
2021/08/05 03:06:42;;;;;;;;;;;;;;;;;;2108771;28;1971;-83
2021/08/05 03:07:44;;;;;;;;;;;;;;;;;;2109683;28;2068;-82
2021/08/05 03:08:44;;;;;;;;;;;;;;;;;;2108733;28;1543;-82
2021/08/05 03:09:46;;;;;;;;;;;;;;;;;;2109083;28;1541;-83
2021/08/05 03:10:47;;;;;;;;;;;;;;;;;;2100950;28;1973;-83
2021/08/05 03:11:49;;;;;;;;;;;;;;;;;;2108481;28;1559;-83
2021/08/05 03:12:50;;;;;;;;;;;;;;;;;;2114082;28;2026;-83
2021/08/05 03:13:51;;;;;;;;;;;;;;;;;;2109149;28;1699;-83
2021/08/05 03:14:52;;;;;;;;;;;;;;;;;;2100481;28;1608;-83
2021/08/05 03:15:55;;;;;;;;;;;;;;;;;;2103661;28;2082;-83
2021/08/05 03:16:56;;;;;;;;;;;;;;;;;;2100300;28;1232;-83
2021/08/05 03:17:58;;;;;;;;;;;;;;;;;;2100446;28;2094;-83
2021/08/05 03:18:59;;;;;;;;;;;;;;;;;;2099917;28;1544;-83
2021/08/05 03:20:01;;;;;;;;;;;;;;;;;;2109064;28;1431;-82
2021/08/05 03:21:02;;;;;;;;;;;;;;;;;;2108798;28;1682;-82
2021/08/05 03:22:04;;;;;;;;;;;;;;;;;;2108638;28;1544;-83
2021/08/05 03:23:04;;;;;;;;;;;;;;;;;;2100208;28;1912;-82
2021/08/05 03:24:06;;;;;;;;;;;;;;;;;;2100491;28;1294;-82
2021/08/05 03:25:07;;;;;;;;;;;;;;;;;;2100561;28;1695;-82
2021/08/05 03:26:09;;;;;;;;;;;;;;;;;;2099757;28;2090;-82
2021/08/05 03:27:10;;;;;;;;;;;;;;;;;;2100228;28;1998;-84
2021/08/05 03:28:12;;;;;;;;;;;;;;;;;;2100850;28;1698;-82
2021/08/05 03:29:12;;;;;;;;;;;;;;;;;;2100376;28;1939;-82
2021/08/05 03:30:14;;;;;;;;;;;;;;;;;;2100283;28;1837;-82
2021/08/05 03:31:16;;;;;;;;;;;;;;;;;;2114826;28;1875;-82
2021/08/05 03:32:18;;;;;;;;;;;;;;;;;;2108945;28;1681;-83
2021/08/05 03:33:19;;;;;;;;;;;;;;;;;;2116726;28;813;-82
2021/08/05 03:34:20;;;;;;;;;;;;;;;;;;2108834;28;1309;-82
2021/08/05 03:35:21;;;;;;;;;;;;;;;;;;2100360;28;1600;-82
2021/08/05 03:36:23;;;;;;;;;;;;;;;;;;2107662;28;1870;-82
2021/08/05 03:37:23;;;;;;;;;;;;;;;;;;2108501;28;2077;-83
2021/08/05 03:38:25;;;;;;;;;;;;;;;;;;2108693;28;1544;-83
2021/08/05 03:39:26;;;;;;;;;;;;;;;;;;2108565;28;1755;-83
2021/08/05 03:40:28;;;;;;;;;;;;;;;;;;2099796;28;1951;-83
2021/08/05 03:41:28;;;;;;;;;;;;;;;;;;2100783;28;1715;-82
2021/08/05 03:42:30;;;;;;;;;;;;;;;;;;2111101;28;2037;-82
2021/08/05 03:43:31;;;;;;;;;;;;;;;;;;2108671;28;1229;-82
2021/08/05 03:44:33;;;;;;;;;;;;;;;;;;2100044;28;1719;-83
2021/08/05 03:45:33;;;;;;;;;;;;;;;;;;2100883;28;1844;-82
2021/08/05 03:46:36;;;;;;;;;;;;;;;;;;2108066;28;1766;-82
2021/08/05 03:47:37;;;;;;;;;;;;;;;;;;2111745;28;1972;-82
2021/08/05 03:48:40;;;;;;;;;;;;;;;;;;2108583;28;1190;-82
2021/08/05 03:49:41;;;;;;;;;;;;;;;;;;2108667;28;1715;-82
2021/08/05 03:50:42;;;;;;;;;;;;;;;;;;2108055;28;1918;-82
2021/08/05 03:51:43;;;;;;;;;;;;;;;;;;2108726;28;1747;-82
2021/08/05 03:52:45;;;;;;;;;;;;;;;;;;2108252;28;2042;-82
2021/08/05 03:53:45;;;;;;;;;;;;;;;;;;2108141;28;1698;-82
2021/08/05 03:54:47;;;;;;;;;;;;;;;;;;2108611;28;1711;-82
2021/08/05 03:55:48;;;;;;;;;;;;;;;;;;2108074;28;1844;-84
2021/08/05 03:56:49;;;;;;;;;;;;;;;;;;2100101;28;1756;-84
2021/08/05 03:57:50;;;;;;;;;;;;;;;;;;2105440;28;2005;-83
2021/08/05 03:58:52;;;;;;;;;;;;;;;;;;2108333;28;1591;-84
2021/08/05 03:59:52;;;;;;;;;;;;;;;;;;2108690;28;1595;-84
2021/08/05 04:00:54;;;;;;;;;;;;;;;;;;2099654;28;1864;-84
2021/08/05 04:01:57;;;;;;;;;;;;;;;;;;2108288;28;1344;-83
2021/08/05 04:02:58;;;;;;;;;;;;;;;;;;2108415;28;929;-84
2021/08/05 04:03:59;;;;;;;;;;;;;;;;;;2108666;28;1729;-84
2021/08/05 04:05:01;;;;;;;;;;;;;;;;;;2099987;28;1376;-84
2021/08/05 04:06:01;;;;;;;;;;;;;;;;;;2108929;28;1851;-84
2021/08/05 04:07:03;;;;;;;;;;;;;;;;;;2108210;28;1909;-82
2021/08/05 04:08:04;;;;;;;;;;;;;;;;;;2106936;28;2142;-82
2021/08/05 04:09:06;;;;;;;;;;;;;;;;;;2107668;28;1640;-83
2021/08/05 04:10:07;;;;;;;;;;;;;;;;;;2116795;28;1566;-82
2021/08/05 04:11:09;;;;;;;;;;;;;;;;;;2108813;28;2033;-82
2021/08/05 04:12:10;;;;;;;;;;;;;;;;;;2100016;28;1917;-82
2021/08/05 04:13:13;;;;;;;;;;;;;;;;;;2116550;28;1261;-83
2021/08/05 04:14:14;;;;;;;;;;;;;;;;;;2108298;28;1673;-82
2021/08/05 04:15:15;;;;;;;;;;;;;;;;;;2107863;28;1266;-83
2021/08/05 04:16:16;;;;;;;;;;;;;;;;;;2107539;28;1914;-87
2021/08/05 04:17:19;;;;;;;;;;;;;;;;;;2108628;28;1885;-83
2021/08/05 04:18:20;;;;;;;;;;;;;;;;;;2108309;28;843;-82
2021/08/05 04:19:26;;;;;;;;;;;;;;;;;;2108429;28;1353;-83
2021/08/05 04:20:26;;;;;;;;;;;;;;;;;;2108241;28;1855;-84
2021/08/05 04:21:28;;;;;;;;;;;;;;;;;;2108067;28;1625;-83
2021/08/05 04:22:29;;;;;;;;;;;;;;;;;;2107368;28;1966;-83
2021/08/05 04:23:31;;;;;;;;;;;;;;;;;;2108398;28;1515;-83
2021/08/05 04:24:31;;;;;;;;;;;;;;;;;;2108364;28;1789;-83
2021/08/05 04:25:33;;;;;;;;;;;;;;;;;;2100333;28;2007;-83
2021/08/05 04:26:34;;;;;;;;;;;;;;;;;;2108060;28;1650;-83
2021/08/05 04:27:36;;;;;;;;;;;;;;;;;;2103077;28;1999;-82
2021/08/05 04:28:37;;;;;;;;;;;;;;;;;;2108245;28;1189;-84
2021/08/05 04:29:39;;;;;;;;;;;;;;;;;;2108078;28;1754;-82
2021/08/05 04:30:40;;;;;;;;;;;;;;;;;;2106866;28;1953;-83
2021/08/05 04:31:41;;;;;;;;;;;;;;;;;;2108045;28;914;-82
2021/08/05 04:32:43;;;;;;;;;;;;;;;;;;2108879;28;1900;-82
2021/08/05 04:33:45;;;;;;;;;;;;;;;;;;2108387;28;1370;-82
2021/08/05 04:34:48;;;;;;;;;;;;;;;;;;2099822;28;1231;-82
2021/08/05 04:35:49;;;;;;;;;;;;;;;;;;2099404;28;1804;-82
2021/08/05 04:36:50;;;;;;;;;;;;;;;;;;2099627;28;1523;-82
2021/08/05 04:37:57;;;;;;;;;;;;;;;;;;2100274;28;1952;-82
2021/08/05 04:38:57;;;;;;;;;;;;;;;;;;2108455;28;859;-82
2021/08/05 04:39:59;;;;;;;;;;;;;;;;;;2108330;28;1703;-82
2021/08/05 04:41:00;;;;;;;;;;;;;;;;;;2108018;28;1874;-83
2021/08/05 04:42:02;;;;;;;;;;;;;;;;;;2108270;28;1729;-83
2021/08/05 04:43:02;;;;;;;;;;;;;;;;;;2106265;28;2113;-83
2021/08/05 04:44:04;;;;;;;;;;;;;;;;;;2108254;28;1613;-83
2021/08/05 04:45:06;;;;;;;;;;;;;;;;;;2108325;28;1694;-83
2021/08/05 04:46:07;;;;;;;;;;;;;;;;;;2108188;28;1449;-86
2021/08/05 04:47:08;;;;;;;;;;;;;;;;;;2099635;28;1910;-83
2021/08/05 04:48:11;;;;;;;;;;;;;;;;;;2099729;28;1761;-83
2021/08/05 04:49:12;;;;;;;;;;;;;;;;;;2108420;28;910;-82
2021/08/05 04:50:14;;;;;;;;;;;;;;;;;;2107560;28;1703;-82
2021/08/05 04:51:15;;;;;;;;;;;;;;;;;;2099974;28;1277;-83
2021/08/05 04:52:16;;;;;;;;;;;;;;;;;;2099820;28;1944;-83
2021/08/05 04:53:17;;;;;;;;;;;;;;;;;;2108329;28;1580;-82
2021/08/05 04:54:18;;;;;;;;;;;;;;;;;;2108109;28;1628;-82
2021/08/05 04:55:20;;;;;;;;;;;;;;;;;;2108262;28;1564;-82
2021/08/05 04:56:20;;;;;;;;;;;;;;;;;;2108117;28;1683;-83
2021/08/05 04:57:22;;;;;;;;;;;;;;;;;;2107043;28;2064;-83
2021/08/05 04:58:23;;;;;;;;;;;;;;;;;;2107923;28;1317;-83
2021/08/05 04:59:24;;;;;;;;;;;;;;;;;;2108283;28;1501;-82
2021/08/05 05:00:26;;;;;;;;;;;;;;;;;;2108007;28;1725;-82
2021/08/05 05:01:28;;;;;;;;;;;;;;;;;;2108247;28;1269;-83
2021/08/05 05:02:28;;;;;;;;;;;;;;;;;;2106915;28;2078;-83
2021/08/05 05:03:31;;;;;;;;;;;;;;;;;;2108022;28;1425;-83
2021/08/05 05:04:32;;;;;;;;;;;;;;;;;;2115770;28;1370;-84
2021/08/05 05:05:35;;;;;;;;;;;;;;;;;;2116530;28;1669;-83
2021/08/05 05:06:35;;;;;;;;;;;;;;;;;;2116426;28;1442;-82
2021/08/05 05:07:37;;;;;;;;;;;;;;;;;;2107395;28;1929;-83
2021/08/05 05:08:38;;;;;;;;;;;;;;;;;;2107961;28;1549;-82
2021/08/05 05:09:39;;;;;;;;;;;;;;;;;;2108043;28;1694;-83
2021/08/05 05:10:40;;;;;;;;;;;;;;;;;;2107559;28;1872;-84
2021/08/05 05:11:43;;;;;;;;;;;;;;;;;;2107474;28;1528;-82
2021/08/05 05:12:44;;;;;;;;;;;;;;;;;;2107986;28;1559;-83
2021/08/05 05:13:46;;;;;;;;;;;;;;;;;;2107970;28;1258;-82
2021/08/05 05:14:46;;;;;;;;;;;;;;;;;;2099521;28;1678;-82
2021/08/05 05:15:49;;;;;;;;;;;;;;;;;;2099626;28;1570;-82
2021/08/05 05:16:50;;;;;;;;;;;;;;;;;;2107446;28;1674;-82
2021/08/05 05:17:52;;;;;;;;;;;;;;;;;;2108211;27;2002;-85
2021/08/05 05:18:54;;;;;;;;;;;;;;;;;;2107638;28;1652;-82
2021/08/05 05:19:55;;;;;;;;;;;;;;;;;;2108031;28;1742;-82
2021/08/05 05:20:56;;;;;;;;;;;;;;;;;;2107829;28;1238;-82
2021/08/05 05:21:58;;;;;;;;;;;;;;;;;;2107872;28;1669;-82
2021/08/05 05:22:59;;;;;;;;;;;;;;;;;;2099344;28;2032;-82
2021/08/05 05:24:01;;;;;;;;;;;;;;;;;;2099616;28;1321;-82
2021/08/05 05:25:03;;;;;;;;;;;;;;;;;;2098943;28;1474;-82
2021/08/05 05:26:05;;;;;;;;;;;;;;;;;;2099124;28;1554;-82
2021/08/05 05:27:05;;;;;;;;;;;;;;;;;;2099303;28;1552;-82
2021/08/05 05:28:08;;;;;;;;;;;;;;;;;;2107745;28;1902;-88
2021/08/05 05:29:09;;;;;;;;;;;;;;;;;;2108024;28;1309;-83
2021/08/05 05:30:11;;;;;;;;;;;;;;;;;;2090994;28;1664;-83
2021/08/05 05:31:12;;;;;;;;;;;;;;;;;;2097580;28;1786;-82
2021/08/05 05:32:14;;;;;;;;;;;;;;;;;;2114468;28;2034;-85
2021/08/05 05:33:14;;;;;;;;;;;;;;;;;;2099488;28;1775;-82
2021/08/05 05:34:18;;;;;;;;;;;;;;;;;;2107552;28;1669;-83
2021/08/05 05:35:19;;;;;;;;;;;;;;;;;;2108172;28;1230;-82
2021/08/05 05:36:20;;;;;;;;;;;;;;;;;;2116041;28;1323;-82
2021/08/05 05:37:22;;;;;;;;;;;;;;;;;;2099544;28;1742;-82
2021/08/05 05:38:24;;;;;;;;;;;;;;;;;;2099300;28;1671;-82
2021/08/05 05:39:25;;;;;;;;;;;;;;;;;;2107164;28;1540;-83
2021/08/05 05:40:27;;;;;;;;;;;;;;;;;;2107475;28;1311;-85
2021/08/05 05:41:27;;;;;;;;;;;;;;;;;;2107864;28;1217;-82
2021/08/05 05:42:30;;;;;;;;;;;;;;;;;;2107094;28;2105;-83
2021/08/05 05:43:31;;;;;;;;;;;;;;;;;;2108028;28;1372;-82
2021/08/05 05:44:32;;;;;;;;;;;;;;;;;;2107755;28;1293;-82
2021/08/05 05:45:33;;;;;;;;;;;;;;;;;;2107358;28;1925;-83
2021/08/05 05:46:35;;;;;;;;;;;;;;;;;;2106686;28;1556;-82
2021/08/05 05:47:36;;;;;;;;;;;;;;;;;;2107016;28;1902;-82
2021/08/05 05:48:38;;;;;;;;;;;;;;;;;;2107583;28;1595;-82
2021/08/05 05:49:40;;;;;;;;;;;;;;;;;;2099656;28;1276;-82
2021/08/05 05:50:42;;;;;;;;;;;;;;;;;;2098957;28;1609;-82
2021/08/05 05:51:42;;;;;;;;;;;;;;;;;;2107854;28;1719;-82
2021/08/05 05:52:44;;;;;;;;;;;;;;;;;;2107044;28;1991;-81
2021/08/05 05:53:45;;;;;;;;;;;;;;;;;;2098174;28;1355;-82
2021/08/05 05:54:46;;;;;;;;;;;;;;;;;;2098937;28;1647;-82
2021/08/05 05:55:47;;;;;;;;;;;;;;;;;;2101828;28;1876;-82
2021/08/05 05:56:49;;;;;;;;;;;;;;;;;;2107578;28;1293;-82
2021/08/05 05:57:50;;;;;;;;;;;;;;;;;;2113004;28;1939;-81
2021/08/05 05:58:51;;;;;;;;;;;;;;;;;;2107535;28;1799;-82
2021/08/05 05:59:52;;;;;;;;;;;;;;;;;;2099363;28;1325;-82
2021/08/05 06:00:54;;;;;;;;;;;;;;;;;;2101953;28;1705;-83
2021/08/05 06:01:54;;;;;;;;;;;;;;;;;;2099091;28;1281;-83
2021/08/05 06:02:56;;;;;;;;;;;;;;;;;;2099088;28;1668;-82
2021/08/05 06:03:57;;;;;;;;;;;;;;;;;;2107647;28;1223;-82
2021/08/05 06:05:00;;;;;;;;;;;;;;;;;;2107480;28;1600;-83
2021/08/05 06:06:01;;;;;;;;;;;;;;;;;;2106462;28;1935;-85
2021/08/05 06:07:03;;;;;;;;;;;;;;;;;;2099153;28;1413;-85
2021/08/05 06:08:03;;;;;;;;;;;;;;;;;;2099534;28;2019;-84
2021/08/05 06:09:05;;;;;;;;;;;;;;;;;;2107840;28;1559;-84
2021/08/05 06:10:06;;;;;;;;;;;;;;;;;;2107318;28;1425;-84
2021/08/05 06:11:08;;;;;;;;;;;;;;;;;;2107972;28;2057;-83
2021/08/05 06:12:09;;;;;;;;;;;;;;;;;;2099015;28;1566;-82
2021/08/05 06:13:11;;;;;;;;;;;;;;;;;;2099265;28;1805;-82
2021/08/05 06:14:11;;;;;;;;;;;;;;;;;;2098562;28;1820;-82
2021/08/05 06:15:14;;;;;;;;;;;;;;;;;;2099244;28;1619;-83
2021/08/05 06:16:14;;;;;;;;;;;;;;;;;;2113710;28;1941;-83
2021/08/05 06:17:16;;;;;;;;;;;;;;;;;;2106680;28;1885;-83
2021/08/05 06:18:17;;;;;;;;;;;;;;;;;;2107470;28;1626;-83
2021/08/05 06:19:18;;;;;;;;;;;;;;;;;;2107506;28;1534;-83
2021/08/05 06:20:21;;;;;;;;;;;;;;;;;;2107575;28;1353;-83
2021/08/05 06:21:22;;;;;;;;;;;;;;;;;;2114088;28;1883;-83
2021/08/05 06:22:23;;;;;;;;;;;;;;;;;;2107065;28;2046;-83
2021/08/05 06:23:25;;;;;;;;;;;;;;;;;;2107732;28;764;-83
2021/08/05 06:24:26;;;;;;;;;;;;;;;;;;2107201;28;1684;-83
2021/08/05 06:25:27;;;;;;;;;;;;;;;;;;2099063;28;1824;-85
2021/08/05 06:26:28;;;;;;;;;;;;;;;;;;2115620;28;1599;-82
2021/08/05 06:27:30;;;;;;;;;;;;;;;;;;2107084;28;2013;-83
2021/08/05 06:28:33;;;;;;;;;;;;;;;;;;2106504;28;1974;-83
2021/08/05 06:29:34;;;;;;;;;;;;;;;;;;2100018;28;1250;-83
2021/08/05 06:30:35;;;;;;;;;;;;;;;;;;2106993;28;1942;-83
2021/08/05 06:31:37;;;;;;;;;;;;;;;;;;2115818;28;1593;-83
2021/08/05 06:32:38;;;;;;;;;;;;;;;;;;2106885;28;1752;-83
2021/08/05 06:33:39;;;;;;;;;;;;;;;;;;2099250;28;1271;-83
2021/08/05 06:34:41;;;;;;;;;;;;;;;;;;2107351;28;1387;-83
2021/08/05 06:35:43;;;;;;;;;;;;;;;;;;2099154;28;1946;-83
2021/08/05 06:36:45;;;;;;;;;;;;;;;;;;2107224;28;1533;-84
2021/08/05 06:37:46;;;;;;;;;;;;;;;;;;2112369;28;2057;-83
2021/08/05 06:38:48;;;;;;;;;;;;;;;;;;2109005;28;1715;-83
2021/08/05 06:39:49;;;;;;;;;;;;;;;;;;2109371;28;1269;-83
2021/08/05 06:40:51;;;;;;;;;;;;;;;;;;2109015;28;1697;-83
2021/08/05 06:41:51;;;;;;;;;;;;;;;;;;2109131;28;1549;-82
2021/08/05 06:42:53;;;;;;;;;;;;;;;;;;2105583;28;1889;-82
2021/08/05 06:43:54;;;;;;;;;;;;;;;;;;2109262;28;1645;-82
2021/08/05 06:44:55;;;;;;;;;;;;;;;;;;2109060;28;1656;-83
2021/08/05 06:45:56;;;;;;;;;;;;;;;;;;2116977;28;1647;-83
2021/08/05 06:46:58;;;;;;;;;;;;;;;;;;2117786;28;1732;-86
2021/08/05 06:47:59;;;;;;;;;;;;;;;;;;2117314;28;1918;-90
2021/08/05 06:49:01;;;;;;;;;;;;;;;;;;2117776;28;1233;-87
2021/08/05 06:50:02;;;;;;;;;;;;;;;;;;2118070;28;1273;-86
2021/08/05 06:51:05;;;;;;;;;;;;;;;;;;2109269;28;1319;-86
2021/08/05 06:52:06;;;;;;;;;;;;;;;;;;2117579;28;1253;-86
2021/08/05 06:53:08;;;;;;;;;;;;;;;;;;2117315;28;1392;-84
2021/08/05 06:54:09;;;;;;;;;;;;;;;;;;2117829;28;1603;-84
2021/08/05 06:55:11;;;;;;;;;;;;;;;;;;2117620;28;1563;-84
2021/08/05 06:56:11;;;;;;;;;;;;;;;;;;2100326;28;1643;-83
2021/08/05 06:57:15;;;;;;;;;;;;;;;;;;2100575;28;1389;-82
2021/08/05 06:58:19;;;;;;;;;;;;;;;;;;2103091;28;1411;-83
2021/08/05 06:59:21;;;;;;;;;;;;;;;;;;2109150;28;1686;-83
2021/08/05 07:00:22;;;;;;;;;;;;;;;;;;2101067;28;1286;-85
2021/08/05 07:01:24;;;;;;;;;;;;;;;;;;2113649;28;1481;-84
2021/08/05 07:02:25;;;;;;;;;;;;;;;;;;2112685;28;1321;-84
2021/08/05 07:03:27;;;;;;;;;;;;;;;;;;2109458;28;1562;-85
2021/08/05 07:04:27;;;;;;;;;;;;;;;;;;2109223;28;909;-85
2021/08/05 07:05:30;;;;;;;;;;;;;;;;;;2108643;28;2040;-85
2021/08/05 07:06:32;;;;;;;;;;;;;;;;;;2100638;28;1242;-85
2021/08/05 07:07:33;;;;;;;;;;;;;;;;;;2109009;28;1387;-85
2021/08/05 07:08:34;;;;;;;;;;;;;;;;;;2100257;28;1906;-85
2021/08/05 07:09:36;;;;;;;;;;;;;;;;;;2109087;28;1289;-85